Upanema, Brazil
Current Conditions -  °F | °C
As of 5:00 PM on Monday 24 Nov 2014 (Local Time) from SBNT Reporting Station
Scattered Clouds Scattered Clouds  
Wind Chill: 82°   Ceiling: Unl
Heat Index: 86°   Visibility: 6mi
Dew Point: 70°   Wind: 17mph
Humidity: 66%   Direction: 140°SE
Pressure: 29.88"   Gusts: NA
Location:  5.64°S, 37.26°W
Report Text: SBNT 242000Z 14015KT 9999 SCT021 28/21 Q1012
Loading
Personal Weather Stations






























Interactive Weather Map New forecast layout! Learn more

10-Day Weather Forecast

Advertisements
Track Severe Weather on mobile